Time;durP1;ratioP1;P1;durP2;ratioP2;P2;SDS_P1;SDS_P2;PMS_P1;PMS_P2;Temp;Humidity;BMP_temperature;BMP_pressure;BME280_temperature;BME280_humidity;BME280_pressure;Samples;Min_cycle;Max_cycle;Signal;HPM_P1;HPM_P2
2021/05/25 00:00:23;;;;;;;1.00;0.30;;;10.90;99.90;;;;;;5035747;28;20084;-74
2021/05/25 00:02:50;;;;;;;0.47;0.45;;;10.90;99.90;;;;;;5043117;28;20108;-74
2021/05/25 00:05:18;;;;;;;0.80;0.50;;;10.90;99.90;;;;;;5042408;28;20143;-74
2021/05/25 00:07:44;;;;;;;0.50;0.45;;;10.80;99.90;;;;;;5041324;28;20069;-73
2021/05/25 00:10:11;;;;;;;0.98;0.43;;;10.80;99.90;;;;;;5038389;28;20445;-73
2021/05/25 00:12:36;;;;;;;1.02;0.47;;;10.80;99.90;;;;;;5043279;28;20104;-73
2021/05/25 00:15:06;;;;;;;0.57;0.50;;;10.80;99.90;;;;;;5038015;28;20073;-74
2021/05/25 00:17:32;;;;;;;2.33;0.63;;;10.80;99.90;;;;;;5028469;28;20700;-74
2021/05/25 00:19:58;;;;;;;1.00;0.57;;;10.70;99.90;;;;;;5041639;28;20156;-75
2021/05/25 00:22:23;;;;;;;0.68;0.40;;;10.70;99.90;;;;;;5023176;28;20093;-74
2021/05/25 00:24:49;;;;;;;1.52;0.52;;;10.70;99.90;;;;;;5043323;28;20418;-73
2021/05/25 00:27:14;;;;;;;1.95;0.60;;;10.60;99.90;;;;;;5048344;28;20135;-73
2021/05/25 00:29:40;;;;;;;1.33;0.40;;;10.60;99.90;;;;;;5017401;28;20626;-73
2021/05/25 00:32:06;;;;;;;0.55;0.30;;;10.50;99.90;;;;;;5044065;28;20076;-74
2021/05/25 00:34:31;;;;;;;2.35;0.40;;;10.40;99.90;;;;;;5039657;28;20081;-74
2021/05/25 00:36:57;;;;;;;1.55;0.55;;;10.40;99.90;;;;;;5042969;28;20081;-74
2021/05/25 00:39:22;;;;;;;2.75;0.85;;;10.30;99.90;;;;;;5040633;28;20227;-73
2021/05/25 00:41:48;;;;;;;1.73;0.73;;;10.30;99.90;;;;;;5026019;28;20096;-73
2021/05/25 00:44:14;;;;;;;1.98;0.85;;;10.30;99.90;;;;;;5037599;28;20460;-73
2021/05/25 00:46:40;;;;;;;0.65;0.40;;;10.30;99.90;;;;;;5027806;28;20807;-73
2021/05/25 00:49:06;;;;;;;1.40;0.80;;;10.20;99.90;;;;;;5043044;28;20093;-73
2021/05/25 00:51:33;;;;;;;2.30;1.45;;;10.20;99.90;;;;;;5044067;28;20069;-74
2021/05/25 00:53:59;;;;;;;1.20;0.43;;;10.20;99.90;;;;;;5040978;28;20104;-73
2021/05/25 00:56:25;;;;;;;0.50;0.30;;;10.10;99.90;;;;;;5023896;28;20156;-74
2021/05/25 00:58:52;;;;;;;2.25;0.38;;;10.10;99.90;;;;;;5041476;28;20479;-74
2021/05/25 01:01:18;;;;;;;1.08;0.40;;;10.10;99.90;;;;;;5026957;28;20126;-74
2021/05/25 01:03:44;;;;;;;2.30;0.47;;;10.20;99.90;;;;;;5044376;28;20101;-74
2021/05/25 01:06:09;;;;;;;1.45;0.40;;;10.20;99.90;;;;;;5043387;28;20441;-73
2021/05/25 01:08:37;;;;;;;1.27;0.50;;;10.20;99.90;;;;;;5042851;28;20101;-74
2021/05/25 01:11:06;;;;;;;3.55;0.38;;;10.30;99.90;;;;;;5039062;28;20097;-73
2021/05/25 01:13:41;;;;;;;0.40;0.30;;;10.20;99.90;;;;;;5038339;28;20135;-73
2021/05/25 01:16:07;;;;;;;3.60;0.30;;;10.10;99.90;;;;;;5025929;28;20077;-73
2021/05/25 01:18:33;;;;;;;1.17;0.55;;;10.10;99.90;;;;;;5043602;28;20072;-73
2021/05/25 01:20:59;;;;;;;1.65;0.40;;;10.10;99.90;;;;;;5043642;28;20192;-73
2021/05/25 01:23:25;;;;;;;2.15;0.95;;;10.00;99.90;;;;;;5040637;28;20089;-73
2021/05/25 01:25:51;;;;;;;1.20;0.52;;;10.00;99.90;;;;;;5045844;28;20092;-72
2021/05/25 01:28:23;;;;;;;2.00;0.30;;;10.00;99.90;;;;;;5044029;28;20461;-73
2021/05/25 01:30:53;;;;;;;0.57;0.38;;;10.00;99.90;;;;;;5019049;28;20502;-74
2021/05/25 01:33:20;;;;;;;1.08;0.20;;;10.00;99.90;;;;;;5032714;28;20113;-74
2021/05/25 01:35:46;;;;;;;0.90;0.50;;;10.00;99.90;;;;;;5039366;28;20148;-74
2021/05/25 01:38:13;;;;;;;1.20;0.30;;;9.90;99.90;;;;;;5044241;28;20176;-74
2021/05/25 01:40:40;;;;;;;1.23;0.40;;;9.90;99.90;;;;;;5040034;28;20077;-73
2021/05/25 01:43:07;;;;;;;0.60;0.40;;;9.90;99.90;;;;;;5040812;28;20125;-74
2021/05/25 01:45:33;;;;;;;1.00;0.50;;;10.00;99.90;;;;;;5016159;28;20103;-74
2021/05/25 01:48:02;;;;;;;0.90;0.45;;;10.00;99.90;;;;;;5041422;28;20082;-74
2021/05/25 01:50:28;;;;;;;1.85;0.50;;;9.90;99.90;;;;;;5038876;28;20537;-74
2021/05/25 01:53:10;;;;;;;0.40;0.30;;;10.00;99.90;;;;;;5045419;28;20502;-74
2021/05/25 01:55:37;;;;;;;1.75;0.50;;;9.90;99.90;;;;;;5039889;28;20073;-74
2021/05/25 01:58:19;;;;;;;0.85;0.32;;;9.80;99.90;;;;;;5044390;28;20080;-74
2021/05/25 02:00:53;;;;;;;4.10;0.40;;;9.80;99.90;;;;;;5036984;28;20081;-74
2021/05/25 02:03:19;;;;;;;2.42;1.23;;;9.80;99.90;;;;;;5030085;28;20109;-74
2021/05/25 02:05:46;;;;;;;1.20;0.50;;;9.80;99.90;;;;;;5040092;28;20496;-74
2021/05/25 02:08:13;;;;;;;0.85;0.38;;;9.70;99.90;;;;;;5042676;28;20086;-74
2021/05/25 02:10:41;;;;;;;0.98;0.30;;;9.80;99.90;;;;;;5043749;28;20199;-74
2021/05/25 02:13:10;;;;;;;0.70;0.40;;;9.70;99.90;;;;;;5045493;28;20094;-74
2021/05/25 02:15:36;;;;;;;1.67;0.30;;;9.80;99.90;;;;;;5039080;28;20410;-74
2021/05/25 02:18:10;;;;;;;2.05;0.60;;;9.90;99.90;;;;;;5047231;28;20126;-74
2021/05/25 02:20:37;;;;;;;1.05;0.30;;;9.80;99.90;;;;;;5040418;28;20088;-74
2021/05/25 02:23:03;;;;;;;0.73;0.30;;;9.80;99.90;;;;;;5046400;28;20132;-73
2021/05/25 02:25:30;;;;;;;0.90;0.40;;;9.70;99.90;;;;;;5043816;28;20422;-74
2021/05/25 02:27:56;;;;;;;1.50;0.40;;;9.60;99.90;;;;;;5043450;28;20099;-74
2021/05/25 02:30:22;;;;;;;1.45;0.40;;;9.60;99.90;;;;;;5042169;28;20062;-74
2021/05/25 02:32:49;;;;;;;1.02;0.35;;;9.50;99.90;;;;;;5044175;28;20599;-74
2021/05/25 02:35:14;;;;;;;2.47;0.40;;;9.40;99.90;;;;;;5042945;28;20077;-74
2021/05/25 02:37:40;;;;;;;1.52;0.30;;;9.40;99.90;;;;;;5041227;28;20081;-74
2021/05/25 02:40:07;;;;;;;1.23;0.20;;;9.40;99.90;;;;;;5045892;28;20536;-74
2021/05/25 02:42:33;;;;;;;0.98;0.57;;;9.40;99.90;;;;;;5043163;28;20176;-74
2021/05/25 02:44:58;;;;;;;1.67;0.38;;;9.40;99.90;;;;;;5038377;28;20168;-74
2021/05/25 02:47:24;;;;;;;2.10;0.38;;;9.40;99.90;;;;;;5042134;28;20597;-74
2021/05/25 02:49:50;;;;;;;0.47;0.22;;;9.40;99.90;;;;;;5047399;28;20191;-74
2021/05/25 02:52:16;;;;;;;0.93;0.50;;;9.30;99.90;;;;;;5046217;28;20097;-74
2021/05/25 02:54:41;;;;;;;0.85;0.38;;;9.40;99.90;;;;;;5039276;28;20109;-74
2021/05/25 02:57:07;;;;;;;1.75;0.57;;;9.50;99.90;;;;;;5042974;28;20070;-74
2021/05/25 02:59:34;;;;;;;1.15;0.50;;;9.50;99.90;;;;;;5034273;28;20077;-74
2021/05/25 03:02:00;;;;;;;2.15;0.60;;;9.50;99.90;;;;;;5026485;28;20078;-74
2021/05/25 03:04:25;;;;;;;1.27;0.38;;;9.50;99.90;;;;;;5040553;28;20162;-74
2021/05/25 03:06:51;;;;;;;1.38;0.40;;;9.50;99.90;;;;;;5046926;28;20082;-74
2021/05/25 03:09:17;;;;;;;1.08;0.50;;;9.50;99.90;;;;;;5042168;28;20640;-74
2021/05/25 03:11:44;;;;;;;2.70;0.30;;;9.50;99.90;;;;;;5027784;28;20093;-74
2021/05/25 03:14:09;;;;;;;0.55;0.10;;;9.50;99.90;;;;;;5025172;28;20131;-73
2021/05/25 03:16:35;;;;;;;1.52;0.40;;;9.40;99.90;;;;;;5027021;28;20073;-73
2021/05/25 03:19:01;;;;;;;2.47;0.30;;;9.50;99.90;;;;;;5029366;28;20119;-73
2021/05/25 03:21:26;;;;;;;1.83;0.47;;;9.50;99.90;;;;;;5041875;28;20127;-73
2021/05/25 03:23:54;;;;;;;2.17;0.40;;;9.40;99.90;;;;;;5047248;28;20097;-73
2021/05/25 03:26:20;;;;;;;1.10;0.30;;;9.40;99.90;;;;;;5027879;28;20541;-73
2021/05/25 03:28:46;;;;;;;1.10;0.40;;;9.40;99.90;;;;;;5038215;28;20093;-73
2021/05/25 03:31:11;;;;;;;0.77;0.40;;;9.30;99.90;;;;;;5047928;28;20073;-73
2021/05/25 03:33:37;;;;;;;1.42;0.63;;;9.30;99.90;;;;;;5044474;28;21738;-73
2021/05/25 03:36:03;;;;;;;2.33;0.40;;;9.30;99.90;;;;;;5046779;28;20487;-74
2021/05/25 03:38:28;;;;;;;0.93;0.40;;;9.30;99.90;;;;;;5037271;28;20116;-73
2021/05/25 03:43:35;;;;;;;4.68;0.80;;;9.20;99.90;;;;;;5049546;28;20150;-74
2021/05/25 03:46:01;;;;;;;3.28;0.88;;;9.20;99.90;;;;;;5056593;28;20484;-74
2021/05/25 03:48:26;;;;;;;2.03;1.00;;;9.20;99.90;;;;;;5056158;28;20620;-74
2021/05/25 03:50:52;;;;;;;3.05;0.90;;;9.20;99.90;;;;;;5051202;28;20541;-74
2021/05/25 03:53:18;;;;;;;3.35;0.52;;;9.20;99.90;;;;;;5036653;28;20086;-74
2021/05/25 04:00:54;;;;;;;3.60;0.47;;;9.40;99.90;;;;;;5032582;28;20448;-75
2021/05/25 04:03:19;;;;;;;4.97;0.90;;;9.20;99.90;;;;;;5032537;28;20544;-75
2021/05/25 04:05:46;;;;;;;4.50;0.60;;;9.30;99.90;;;;;;5021152;28;20109;-74
2021/05/25 04:08:12;;;;;;;2.97;0.60;;;9.10;99.90;;;;;;5038554;28;20070;-75
2021/05/25 04:10:38;;;;;;;1.17;0.50;;;9.10;99.90;;;;;;5033813;28;20074;-74
2021/05/25 04:13:04;;;;;;;2.17;0.57;;;9.10;99.90;;;;;;5024299;28;20190;-74
2021/05/25 04:15:30;;;;;;;2.70;0.40;;;9.10;99.90;;;;;;5028024;28;20168;-74
2021/05/25 04:17:56;;;;;;;3.53;0.70;;;9.10;99.90;;;;;;5035638;28;20111;-74
2021/05/25 04:20:24;;;;;;;3.40;0.60;;;9.10;99.90;;;;;;5022437;28;20504;-74
2021/05/25 04:22:49;;;;;;;1.02;0.50;;;9.20;99.90;;;;;;5032957;28;20171;-74
2021/05/25 04:25:15;;;;;;;1.92;0.50;;;9.20;99.90;;;;;;5035280;28;20101;-74
2021/05/25 04:27:41;;;;;;;0.95;0.30;;;9.30;99.90;;;;;;5017076;28;20086;-74
2021/05/25 04:30:08;;;;;;;2.90;0.50;;;9.40;99.90;;;;;;5030393;28;20126;-74
2021/05/25 04:32:34;;;;;;;2.20;1.00;;;9.40;99.90;;;;;;5032614;28;20108;-74
2021/05/25 04:35:00;;;;;;;1.60;0.85;;;9.30;99.90;;;;;;5033668;28;20069;-74
2021/05/25 04:37:26;;;;;;;1.27;0.60;;;9.30;99.90;;;;;;5031504;28;20540;-74
2021/05/25 04:39:51;;;;;;;1.27;0.50;;;9.20;99.90;;;;;;5032681;28;20161;-74
2021/05/25 04:42:17;;;;;;;2.70;0.77;;;9.30;99.90;;;;;;5023458;28;20101;-74
2021/05/25 04:44:43;;;;;;;3.33;0.60;;;9.30;99.90;;;;;;5025547;28;20215;-75
2021/05/25 04:47:09;;;;;;;3.42;0.50;;;9.20;99.90;;;;;;5031576;28;20077;-75
2021/05/25 04:49:36;;;;;;;2.83;0.38;;;9.20;99.90;;;;;;5029096;28;20256;-75
2021/05/25 04:52:03;;;;;;;2.67;1.35;;;9.20;99.90;;;;;;5038056;28;20181;-75
2021/05/25 04:54:29;;;;;;;0.95;0.38;;;9.30;99.90;;;;;;5034430;28;20125;-75
2021/05/25 04:56:55;;;;;;;4.07;0.75;;;9.20;99.90;;;;;;5038174;28;20212;-75
2021/05/25 04:59:21;;;;;;;1.25;0.60;;;9.10;99.90;;;;;;5025666;28;20070;-75
2021/05/25 05:01:47;;;;;;;1.63;0.43;;;9.20;99.90;;;;;;5021807;28;20105;-75
2021/05/25 05:04:12;;;;;;;1.65;0.47;;;9.10;99.90;;;;;;5031964;28;20081;-75
2021/05/25 05:06:38;;;;;;;3.03;1.02;;;9.20;99.90;;;;;;5030810;28;20077;-75
2021/05/25 05:09:04;;;;;;;3.28;0.68;;;9.30;99.90;;;;;;5032170;28;20094;-75
2021/05/25 05:11:31;;;;;;;1.92;0.50;;;9.20;99.90;;;;;;5030587;28;20092;-75
2021/05/25 05:13:57;;;;;;;1.58;0.88;;;9.20;99.90;;;;;;5025584;28;20081;-74
2021/05/25 05:16:23;;;;;;;2.95;0.57;;;9.30;99.90;;;;;;5030328;28;20541;-73
2021/05/25 05:18:48;;;;;;;2.80;0.68;;;9.30;99.90;;;;;;5033038;28;20428;-75
2021/05/25 05:21:14;;;;;;;2.20;0.93;;;9.30;99.90;;;;;;5036675;28;20100;-74
2021/05/25 05:23:40;;;;;;;2.63;0.70;;;9.20;99.90;;;;;;5033831;28;20082;-74
2021/05/25 05:26:05;;;;;;;3.30;1.73;;;9.10;99.90;;;;;;5033093;28;20084;-74
2021/05/25 05:28:31;;;;;;;3.05;1.10;;;9.10;99.90;;;;;;5012244;28;20093;-74
2021/05/25 05:30:57;;;;;;;7.35;1.90;;;9.10;99.90;;;;;;5029741;28;20077;-74
2021/05/25 05:33:22;;;;;;;2.42;0.85;;;9.00;99.90;;;;;;5022247;28;20076;-74
2021/05/25 05:35:48;;;;;;;2.67;0.57;;;9.00;99.90;;;;;;5034142;28;20080;-75
2021/05/25 05:38:14;;;;;;;1.77;0.68;;;9.10;99.90;;;;;;5010932;28;20514;-73
2021/05/25 05:40:39;;;;;;;4.50;1.77;;;9.00;99.90;;;;;;5026896;28;20080;-74
2021/05/25 05:43:06;;;;;;;3.42;0.85;;;9.00;99.90;;;;;;5030332;28;20128;-74
2021/05/25 05:45:31;;;;;;;2.30;0.80;;;9.10;99.90;;;;;;5032194;28;20092;-74
2021/05/25 05:47:57;;;;;;;2.03;0.80;;;9.20;99.90;;;;;;5044508;28;20556;-74
2021/05/25 05:50:23;;;;;;;2.80;0.70;;;9.30;99.90;;;;;;5034554;28;20102;-75
2021/05/25 05:52:48;;;;;;;2.15;0.70;;;9.20;99.90;;;;;;5036388;28;20624;-73
2021/05/25 05:55:14;;;;;;;3.75;0.50;;;9.20;99.90;;;;;;5037569;28;20069;-74
2021/05/25 05:57:40;;;;;;;7.82;0.75;;;9.20;99.90;;;;;;5032616;28;20127;-73
2021/05/25 06:00:08;;;;;;;4.20;0.45;;;9.20;99.90;;;;;;5027129;28;20180;-74
2021/05/25 06:02:34;;;;;;;2.03;0.65;;;9.30;99.90;;;;;;5032619;28;20101;-75
2021/05/25 06:05:00;;;;;;;1.10;0.43;;;9.30;99.90;;;;;;5019696;28;20098;-75
2021/05/25 06:07:25;;;;;;;3.20;0.80;;;9.40;99.90;;;;;;5034105;28;20093;-75
2021/05/25 06:09:53;;;;;;;3.67;1.00;;;9.10;99.90;;;;;;5037037;28;20094;-74
2021/05/25 06:12:19;;;;;;;8.10;3.08;;;9.20;99.90;;;;;;5033783;28;20188;-74
2021/05/25 06:14:44;;;;;;;11.02;3.17;;;9.10;99.90;;;;;;5010508;28;20078;-74
2021/05/25 06:17:10;;;;;;;10.63;3.67;;;9.10;99.90;;;;;;5025951;28;20115;-73
2021/05/25 06:19:35;;;;;;;11.93;2.92;;;9.20;99.90;;;;;;5034193;28;20171;-74
2021/05/25 06:22:01;;;;;;;26.52;7.75;;;9.30;99.90;;;;;;5036271;28;20093;-75
2021/05/25 06:24:26;;;;;;;19.15;6.55;;;9.30;99.90;;;;;;5036008;28;20074;-73
2021/05/25 06:26:52;;;;;;;4.30;1.73;;;9.30;99.90;;;;;;5034135;28;20078;-73
2021/05/25 06:29:17;;;;;;;2.03;0.50;;;9.20;99.90;;;;;;5031760;28;20097;-74
2021/05/25 06:31:43;;;;;;;2.22;0.68;;;9.20;99.90;;;;;;5031970;28;20223;-75
2021/05/25 06:34:09;;;;;;;2.45;0.50;;;9.30;99.90;;;;;;5039597;28;20172;-74
2021/05/25 06:36:34;;;;;;;1.75;0.77;;;9.30;99.90;;;;;;5030517;28;20078;-73
2021/05/25 06:39:00;;;;;;;3.15;0.60;;;9.20;99.90;;;;;;5035746;28;20453;-75
2021/05/25 06:41:25;;;;;;;2.55;0.73;;;9.20;99.90;;;;;;5032357;28;20147;-73
2021/05/25 06:43:51;;;;;;;3.20;0.50;;;9.20;99.90;;;;;;5029225;28;21860;-74
2021/05/25 06:46:16;;;;;;;3.65;1.08;;;9.30;99.90;;;;;;5034735;28;20080;-74
2021/05/25 06:48:42;;;;;;;5.30;1.33;;;9.30;99.90;;;;;;5033025;28;20109;-75
2021/05/25 06:51:08;;;;;;;4.32;0.70;;;9.30;99.90;;;;;;5035198;28;20811;-74
2021/05/25 06:53:37;;;;;;;2.42;0.40;;;9.40;99.90;;;;;;5032079;28;20070;-75
2021/05/25 06:56:04;;;;;;;3.53;0.50;;;9.50;99.90;;;;;;5034817;28;20062;-75
2021/05/25 06:58:30;;;;;;;2.20;0.50;;;9.50;99.90;;;;;;5030421;28;20073;-74
2021/05/25 07:00:55;;;;;;;2.55;0.85;;;9.50;99.90;;;;;;5028075;28;20077;-75
2021/05/25 07:03:21;;;;;;;6.22;0.52;;;9.50;99.90;;;;;;5035712;28;20080;-73
2021/05/25 07:05:46;;;;;;;2.83;0.70;;;9.60;99.90;;;;;;5014656;28;20627;-76
2021/05/25 07:08:12;;;;;;;2.65;0.50;;;9.70;99.90;;;;;;5037645;28;20076;-74
2021/05/25 07:10:38;;;;;;;2.42;1.15;;;9.80;99.90;;;;;;5036193;28;20144;-74
2021/05/25 07:13:03;;;;;;;1.50;0.50;;;9.90;99.90;;;;;;5036336;28;20188;-75
2021/05/25 07:15:29;;;;;;;5.78;0.82;;;10.00;99.90;;;;;;5025066;28;20070;-75
2021/05/25 07:17:57;;;;;;;2.65;0.47;;;10.00;99.90;;;;;;5037331;28;20117;-75
2021/05/25 07:20:27;;;;;;;4.78;0.60;;;10.00;99.90;;;;;;5036064;28;20495;-75
2021/05/25 07:22:53;;;;;;;2.88;0.60;;;9.90;99.90;;;;;;5034135;28;20093;-74
2021/05/25 07:25:24;;;;;;;5.90;0.98;;;10.00;99.90;;;;;;5038004;28;20074;-74
2021/05/25 07:27:50;;;;;;;3.53;0.65;;;10.10;99.90;;;;;;5031407;28;20085;-74
2021/05/25 07:30:16;;;;;;;2.47;0.43;;;10.20;99.90;;;;;;5016076;28;20124;-74
2021/05/25 07:32:42;;;;;;;2.92;0.57;;;10.20;99.90;;;;;;5018494;28;20102;-74
2021/05/25 07:35:09;;;;;;;3.30;0.57;;;10.30;99.90;;;;;;5037101;28;20120;-74
2021/05/25 07:37:35;;;;;;;4.80;0.60;;;10.30;99.90;;;;;;5033734;28;20078;-73
2021/05/25 07:40:01;;;;;;;3.42;0.60;;;10.30;99.90;;;;;;5035986;28;20084;-73
2021/05/25 07:42:27;;;;;;;3.35;0.70;;;10.30;99.90;;;;;;5031134;28;20108;-73
2021/05/25 07:44:53;;;;;;;4.53;0.80;;;10.40;99.90;;;;;;5030328;28;20135;-74
2021/05/25 07:47:19;;;;;;;1.55;0.50;;;10.30;99.90;;;;;;5034033;28;20074;-73
2021/05/25 07:49:44;;;;;;;1.05;0.50;;;10.30;99.90;;;;;;5034230;28;20113;-74
2021/05/25 07:52:10;;;;;;;1.55;0.40;;;10.40;99.90;;;;;;5037810;28;20121;-74
2021/05/25 07:54:36;;;;;;;3.78;0.70;;;10.40;99.90;;;;;;5032737;28;20165;-75
2021/05/25 07:57:05;;;;;;;2.00;0.32;;;10.40;99.90;;;;;;5037847;28;20078;-75
2021/05/25 07:59:31;;;;;;;2.58;0.60;;;10.50;99.90;;;;;;5015037;28;20119;-75
2021/05/25 08:01:57;;;;;;;1.95;0.50;;;10.50;99.90;;;;;;5033294;28;20501;-74
2021/05/25 08:04:23;;;;;;;2.50;0.60;;;10.50;99.90;;;;;;5034409;28;20081;-74
2021/05/25 08:06:49;;;;;;;4.75;0.57;;;10.50;99.90;;;;;;5012226;28;20165;-75
2021/05/25 08:09:14;;;;;;;5.30;0.90;;;10.50;99.90;;;;;;5036078;28;20204;-74
2021/05/25 08:11:40;;;;;;;2.55;0.80;;;10.40;99.90;;;;;;5033878;28;20132;-78
2021/05/25 08:14:08;;;;;;;3.28;0.50;;;10.50;99.90;;;;;;5026171;28;20100;-74
2021/05/25 08:16:35;;;;;;;3.22;0.75;;;10.50;99.90;;;;;;5028458;28;20530;-75
2021/05/25 08:21:37;;;;;;;3.00;1.30;;;10.60;99.90;;;;;;5032293;28;20110;-74
2021/05/25 08:24:07;;;;;;;2.40;0.60;;;10.60;99.90;;;;;;5023549;28;20135;-74
2021/05/25 08:26:34;;;;;;;0.90;0.30;;;10.70;99.90;;;;;;5035463;28;20089;-75
2021/05/25 08:28:59;;;;;;;3.55;0.65;;;10.70;99.90;;;;;;5015259;28;22052;-74
2021/05/25 08:31:25;;;;;;;3.38;1.15;;;10.70;99.90;;;;;;5028855;28;20177;-75
2021/05/25 08:33:51;;;;;;;4.93;0.60;;;10.70;99.90;;;;;;5030980;28;20433;-74
2021/05/25 08:36:18;;;;;;;4.80;0.50;;;10.70;99.90;;;;;;5036452;28;20426;-74
2021/05/25 08:38:44;;;;;;;5.80;0.50;;;10.80;99.90;;;;;;5032545;28;21504;-75
2021/05/25 08:41:10;;;;;;;2.13;0.40;;;10.80;99.90;;;;;;5017258;28;20081;-74
2021/05/25 08:43:36;;;;;;;2.25;0.40;;;10.80;99.90;;;;;;5028524;28;20078;-73
2021/05/25 08:46:02;;;;;;;5.28;0.60;;;10.80;99.90;;;;;;5018869;28;20544;-75
2021/05/25 08:48:27;;;;;;;3.70;0.63;;;10.80;99.90;;;;;;5033077;28;20132;-74
2021/05/25 08:50:59;;;;;;;1.05;0.38;;;10.80;99.90;;;;;;5032913;28;20078;-74
2021/05/25 08:53:27;;;;;;;1.98;0.70;;;10.90;99.90;;;;;;5030346;28;20074;-75
2021/05/25 08:55:53;;;;;;;3.92;0.80;;;10.90;99.90;;;;;;5031659;28;20996;-75
2021/05/25 08:58:20;;;;;;;3.45;0.95;;;10.90;99.90;;;;;;5024318;28;20772;-75
2021/05/25 09:00:47;;;;;;;2.20;0.50;;;10.90;99.90;;;;;;5028238;28;20216;-74
2021/05/25 09:03:19;;;;;;;1.55;0.40;;;10.80;99.90;;;;;;5031332;28;20189;-74
2021/05/25 09:06:09;;;;;;;1.35;0.40;;;10.80;99.90;;;;;;5033935;28;20135;-74
2021/05/25 09:08:36;;;;;;;3.03;0.47;;;10.90;99.90;;;;;;5033831;28;20093;-77
2021/05/25 09:11:06;;;;;;;5.07;0.90;;;10.90;99.90;;;;;;5034506;28;20088;-74
2021/05/25 09:13:31;;;;;;;7.95;0.90;;;11.00;99.90;;;;;;5028932;28;20160;-74
2021/05/25 09:15:59;;;;;;;2.92;0.70;;;11.20;99.90;;;;;;5032071;28;20069;-75
2021/05/25 09:18:27;;;;;;;2.15;0.55;;;11.20;99.90;;;;;;5030865;28;20088;-75
2021/05/25 09:20:55;;;;;;;3.10;0.80;;;11.10;99.90;;;;;;5036968;28;20070;-74
2021/05/25 09:23:34;;;;;;;2.05;0.45;;;11.10;99.90;;;;;;5037768;28;20798;-75
2021/05/25 09:26:19;;;;;;;2.78;0.40;;;11.10;99.90;;;;;;5035101;28;20065;-75
2021/05/25 09:29:08;;;;;;;2.90;0.90;;;11.00;99.90;;;;;;5028465;28;21127;-77
2021/05/25 09:31:41;;;;;;;4.07;0.88;;;10.90;99.90;;;;;;5024157;28;20093;-74
2021/05/25 09:34:17;;;;;;;4.40;1.05;;;11.00;99.90;;;;;;5035544;28;20122;-74
2021/05/25 09:37:06;;;;;;;4.55;0.95;;;11.00;99.90;;;;;;5012821;28;20069;-74
2021/05/25 09:39:35;;;;;;;5.50;0.60;;;11.00;99.90;;;;;;5033640;28;20092;-74
2021/05/25 09:42:06;;;;;;;5.35;0.98;;;11.00;99.90;;;;;;5014164;28;20151;-75
2021/05/25 09:44:34;;;;;;;4.63;0.52;;;11.00;99.90;;;;;;5029588;28;20692;-74
2021/05/25 09:47:01;;;;;;;1.30;0.40;;;11.10;99.90;;;;;;5038601;28;20077;-74
2021/05/25 09:49:31;;;;;;;3.38;0.90;;;11.20;99.90;;;;;;5032383;28;20196;-75
2021/05/25 09:52:07;;;;;;;4.10;0.55;;;11.40;99.90;;;;;;5031899;28;20089;-74
2021/05/25 09:54:34;;;;;;;1.80;0.80;;;11.60;99.90;;;;;;5035387;28;20075;-75
2021/05/25 09:57:05;;;;;;;1.80;0.50;;;11.70;99.90;;;;;;5026797;28;20078;-75
2021/05/25 09:59:32;;;;;;;6.50;0.70;;;11.70;99.90;;;;;;5023236;28;20112;-75
2021/05/25 10:02:14;;;;;;;2.95;0.50;;;11.80;99.90;;;;;;5034681;28;20085;-73
2021/05/25 10:05:15;;;;;;;2.80;0.80;;;11.80;99.90;;;;;;5033662;28;20080;-74
2021/05/25 10:07:41;;;;;;;5.30;0.88;;;11.90;99.90;;;;;;5033867;28;20085;-75
2021/05/25 10:10:07;;;;;;;2.83;0.38;;;12.10;99.90;;;;;;5027928;28;20584;-74
2021/05/25 10:12:33;;;;;;;0.55;0.22;;;12.20;99.90;;;;;;5030823;28;20090;-74
2021/05/25 10:14:59;;;;;;;4.20;0.43;;;12.20;99.90;;;;;;5027996;28;20085;-74
2021/05/25 10:17:44;;;;;;;1.70;0.50;;;12.20;99.90;;;;;;5032810;28;20127;-73
2021/05/25 10:20:11;;;;;;;1.65;0.55;;;12.10;99.90;;;;;;5018251;28;20631;-74
2021/05/25 10:22:38;;;;;;;2.50;0.60;;;12.10;99.90;;;;;;5023052;28;20106;-75
2021/05/25 10:25:11;;;;;;;1.50;0.28;;;12.20;99.90;;;;;;5030427;28;20849;-76
2021/05/25 10:27:37;;;;;;;2.05;0.68;;;12.20;99.90;;;;;;5034722;28;20112;-74
2021/05/25 10:30:03;;;;;;;1.67;0.30;;;12.40;98.80;;;;;;5031507;28;20132;-74
2021/05/25 10:32:29;;;;;;;1.02;0.20;;;12.40;99.80;;;;;;5035844;28;20230;-74
2021/05/25 10:34:55;;;;;;;1.65;0.25;;;12.50;99.90;;;;;;5035095;28;20650;-74
2021/05/25 10:37:22;;;;;;;3.03;0.50;;;12.80;99.90;;;;;;5040067;28;20120;-75
2021/05/25 10:39:55;;;;;;;2.15;0.77;;;12.90;99.90;;;;;;5040264;28;20139;-74
2021/05/25 10:42:22;;;;;;;0.98;0.30;;;12.80;99.90;;;;;;5040469;28;20097;-75
2021/05/25 10:44:51;;;;;;;1.90;0.40;;;12.70;99.90;;;;;;5013722;28;20659;-76
2021/05/25 10:47:19;;;;;;;0.95;0.30;;;12.90;99.90;;;;;;5039199;28;20179;-75
2021/05/25 10:52:53;;;;;;;2.03;1.02;;;12.80;99.90;;;;;;5029429;28;20561;-75
2021/05/25 10:55:45;;;;;;;4.13;1.02;;;13.20;99.90;;;;;;5024080;28;20065;-75
2021/05/25 10:58:35;;;;;;;1.95;0.50;;;13.60;99.90;;;;;;5034553;28;20086;-75
2021/05/25 11:01:07;;;;;;;1.52;0.47;;;13.50;99.90;;;;;;5035967;28;20069;-74
2021/05/25 11:03:33;;;;;;;1.65;0.30;;;13.60;98.30;;;;;;5037698;28;20078;-74
2021/05/25 11:06:03;;;;;;;2.00;0.30;;;13.70;99.80;;;;;;5037091;28;20116;-74
2021/05/25 11:08:39;;;;;;;1.10;0.50;;;13.70;99.30;;;;;;5036323;28;20080;-76
2021/05/25 11:11:14;;;;;;;1.98;0.40;;;13.50;99.70;;;;;;5016446;28;20077;-74
2021/05/25 11:13:51;;;;;;;1.25;0.30;;;13.50;97.90;;;;;;5029718;28;20084;-76
2021/05/25 11:16:31;;;;;;;1.55;0.35;;;13.30;96.90;;;;;;5017006;28;20449;-73
2021/05/25 11:19:04;;;;;;;2.67;0.30;;;12.90;95.90;;;;;;5039474;28;20078;-74
2021/05/25 11:21:42;;;;;;;2.55;0.30;;;12.80;96.80;;;;;;5037498;28;20100;-73
2021/05/25 11:24:34;;;;;;;2.97;0.77;;;12.70;96.30;;;;;;5041539;28;20073;-76
2021/05/25 11:27:25;;;;;;;2.70;0.47;;;12.80;98.40;;;;;;5035859;28;20565;-75
2021/05/25 11:29:52;;;;;;;4.47;0.30;;;13.00;96.20;;;;;;5032074;28;20196;-75
2021/05/25 11:32:23;;;;;;;1.02;0.40;;;13.20;97.90;;;;;;5043443;28;20085;-74
2021/05/25 11:35:05;;;;;;;8.00;0.60;;;13.30;97.40;;;;;;5040585;28;20070;-74
2021/05/25 11:37:33;;;;;;;1.80;0.30;;;13.50;96.10;;;;;;5037310;28;20109;-75
2021/05/25 11:40:00;;;;;;;2.15;0.65;;;13.70;96.10;;;;;;5033002;28;20081;-75
2021/05/25 11:42:33;;;;;;;2.42;0.50;;;13.40;94.00;;;;;;5034964;28;20109;-74
2021/05/25 11:45:00;;;;;;;3.05;0.50;;;13.20;95.80;;;;;;5027701;28;20084;-74
2021/05/25 11:47:26;;;;;;;2.95;0.73;;;13.10;94.70;;;;;;5037279;28;20153;-75
2021/05/25 11:49:52;;;;;;;3.95;0.32;;;13.00;95.60;;;;;;5036234;28;20106;-74
2021/05/25 11:52:22;;;;;;;0.98;0.25;;;13.10;95.70;;;;;;5037415;28;20674;-74
2021/05/25 11:54:49;;;;;;;3.30;0.50;;;13.50;97.10;;;;;;5037903;28;20077;-74
2021/05/25 11:57:28;;;;;;;1.90;0.60;;;13.90;96.90;;;;;;5023277;28;20073;-74
2021/05/25 11:59:58;;;;;;;3.10;0.40;;;14.20;96.20;;;;;;5027924;28;20139;-74
2021/05/25 12:02:26;;;;;;;0.80;0.30;;;14.10;95.60;;;;;;5017433;28;20097;-75
2021/05/25 12:05:21;;;;;;;1.35;0.35;;;13.90;94.50;;;;;;5038438;28;20076;-75
2021/05/25 12:07:52;;;;;;;2.17;0.47;;;13.90;91.10;;;;;;5020215;28;20097;-75
2021/05/25 12:10:20;;;;;;;3.50;0.20;;;13.70;93.90;;;;;;5032646;28;20089;-74
2021/05/25 12:12:46;;;;;;;1.05;0.35;;;14.00;94.10;;;;;;5037150;28;20097;-75
2021/05/25 12:15:21;;;;;;;2.35;0.50;;;13.90;91.90;;;;;;5025285;28;20072;-76
2021/05/25 12:17:52;;;;;;;1.95;0.30;;;14.00;93.20;;;;;;5031373;28;20084;-77
2021/05/25 12:20:19;;;;;;;2.58;0.30;;;14.30;90.90;;;;;;5034952;28;20458;-74
2021/05/25 12:22:48;;;;;;;2.05;0.22;;;13.90;90.80;;;;;;5034909;28;20108;-75
2021/05/25 12:25:27;;;;;;;1.45;0.60;;;13.80;92.20;;;;;;5035665;28;20681;-81
2021/05/25 12:28:14;;;;;;;3.42;0.60;;;13.90;92.40;;;;;;5014660;28;20093;-74
2021/05/25 12:30:44;;;;;;;2.90;0.40;;;14.10;92.90;;;;;;5028355;28;20123;-74
2021/05/25 12:33:20;;;;;;;3.95;0.50;;;14.20;90.30;;;;;;5036065;28;20081;-73
2021/05/25 12:35:46;;;;;;;5.60;0.38;;;14.30;94.30;;;;;;5026563;28;20157;-73
2021/05/25 12:38:15;;;;;;;4.97;0.40;;;14.50;91.30;;;;;;5034612;28;20514;-74
2021/05/25 12:40:44;;;;;;;2.40;0.50;;;14.50;91.70;;;;;;5033448;28;20085;-74
2021/05/25 12:43:15;;;;;;;2.33;0.60;;;14.40;91.50;;;;;;5038238;28;20512;-74
2021/05/25 12:45:43;;;;;;;3.88;0.40;;;14.30;91.60;;;;;;5035286;28;20569;-80
2021/05/25 12:48:09;;;;;;;1.63;0.40;;;14.10;91.20;;;;;;5044054;28;20070;-79
2021/05/25 12:50:38;;;;;;;3.70;0.40;;;13.90;93.60;;;;;;5036302;28;20085;-76
2021/05/25 12:53:11;;;;;;;8.75;0.80;;;14.30;92.50;;;;;;5039442;28;20184;-76
2021/05/25 12:55:57;;;;;;;4.63;0.45;;;14.20;92.80;;;;;;5038455;28;20066;-74
2021/05/25 12:58:44;;;;;;;4.68;0.50;;;14.00;93.10;;;;;;5042756;28;20078;-76
2021/05/25 13:01:20;;;;;;;1.63;0.30;;;13.80;93.70;;;;;;5025451;28;20096;-78
2021/05/25 13:03:46;;;;;;;4.18;1.17;;;13.80;92.50;;;;;;5039378;28;20081;-76
2021/05/25 13:06:18;;;;;;;1.10;0.32;;;13.80;94.20;;;;;;5017773;28;20104;-76
2021/05/25 13:08:48;;;;;;;3.80;1.25;;;13.80;95.20;;;;;;5040832;28;20548;-77